sensor_id;sensor_type;location;lat;lon;timestamp;P1;durP1;ratioP1;P2;durP2;ratioP2
24585;SDS011;12743;52.262;6.172;2023-07-22T00:01:28;8.77;;;3.80;;
24585;SDS011;12743;52.262;6.172;2023-07-22T00:03:55;9.00;;;4.20;;
24585;SDS011;12743;52.262;6.172;2023-07-22T00:06:22;10.23;;;4.07;;
24585;SDS011;12743;52.262;6.172;2023-07-22T00:08:49;10.83;;;4.50;;
24585;SDS011;12743;52.262;6.172;2023-07-22T00:11:16;9.15;;;4.57;;
24585;SDS011;12743;52.262;6.172;2023-07-22T00:13:43;10.60;;;4.30;;
24585;SDS011;12743;52.262;6.172;2023-07-22T00:16:10;9.98;;;4.20;;
24585;SDS011;12743;52.262;6.172;2023-07-22T00:18:37;9.90;;;4.35;;
24585;SDS011;12743;52.262;6.172;2023-07-22T00:21:03;9.57;;;4.47;;
24585;SDS011;12743;52.262;6.172;2023-07-22T00:23:30;9.77;;;4.57;;
24585;SDS011;12743;52.262;6.172;2023-07-22T00:25:57;8.93;;;4.05;;
24585;SDS011;12743;52.262;6.172;2023-07-22T00:28:23;11.45;;;4.80;;
24585;SDS011;12743;52.262;6.172;2023-07-22T00:30:50;9.80;;;4.15;;
24585;SDS011;12743;52.262;6.172;2023-07-22T00:33:19;15.77;;;4.43;;
24585;SDS011;12743;52.262;6.172;2023-07-22T00:35:49;9.45;;;4.35;;
24585;SDS011;12743;52.262;6.172;2023-07-22T00:38:19;9.80;;;4.20;;
24585;SDS011;12743;52.262;6.172;2023-07-22T00:40:46;9.32;;;4.35;;
24585;SDS011;12743;52.262;6.172;2023-07-22T00:43:12;9.68;;;3.92;;
24585;SDS011;12743;52.262;6.172;2023-07-22T00:45:39;10.63;;;4.90;;
24585;SDS011;12743;52.262;6.172;2023-07-22T00:48:06;11.75;;;4.80;;
24585;SDS011;12743;52.262;6.172;2023-07-22T00:50:34;8.05;;;3.72;;
24585;SDS011;12743;52.262;6.172;2023-07-22T00:53:01;11.52;;;4.47;;
24585;SDS011;12743;52.262;6.172;2023-07-22T00:55:28;9.60;;;4.22;;
24585;SDS011;12743;52.262;6.172;2023-07-22T00:57:55;12.83;;;4.20;;
24585;SDS011;12743;52.262;6.172;2023-07-22T01:00:22;11.38;;;3.92;;
24585;SDS011;12743;52.262;6.172;2023-07-22T01:02:49;9.90;;;4.43;;
24585;SDS011;12743;52.262;6.172;2023-07-22T01:05:16;10.38;;;5.20;;
24585;SDS011;12743;52.262;6.172;2023-07-22T01:07:43;8.75;;;3.80;;
24585;SDS011;12743;52.262;6.172;2023-07-22T01:10:10;9.83;;;4.17;;
24585;SDS011;12743;52.262;6.172;2023-07-22T01:12:39;12.63;;;5.68;;
24585;SDS011;12743;52.262;6.172;2023-07-22T01:15:06;10.07;;;5.15;;
24585;SDS011;12743;52.262;6.172;2023-07-22T01:17:36;9.10;;;4.35;;
24585;SDS011;12743;52.262;6.172;2023-07-22T01:20:04;10.07;;;4.60;;
24585;SDS011;12743;52.262;6.172;2023-07-22T01:22:32;13.10;;;4.73;;
24585;SDS011;12743;52.262;6.172;2023-07-22T01:25:02;13.65;;;6.30;;
24585;SDS011;12743;52.262;6.172;2023-07-22T01:27:29;12.32;;;5.65;;
24585;SDS011;12743;52.262;6.172;2023-07-22T01:29:55;10.73;;;4.90;;
24585;SDS011;12743;52.262;6.172;2023-07-22T01:32:22;10.40;;;5.00;;
24585;SDS011;12743;52.262;6.172;2023-07-22T01:34:49;11.63;;;5.20;;
24585;SDS011;12743;52.262;6.172;2023-07-22T01:37:16;11.68;;;5.43;;
24585;SDS011;12743;52.262;6.172;2023-07-22T01:39:43;12.30;;;5.25;;
24585;SDS011;12743;52.262;6.172;2023-07-22T01:42:10;14.73;;;6.53;;
24585;SDS011;12743;52.262;6.172;2023-07-22T01:44:36;12.55;;;6.28;;
24585;SDS011;12743;52.262;6.172;2023-07-22T01:47:03;14.43;;;6.33;;
24585;SDS011;12743;52.262;6.172;2023-07-22T01:49:30;11.05;;;4.72;;
24585;SDS011;12743;52.262;6.172;2023-07-22T01:51:56;13.43;;;6.13;;
24585;SDS011;12743;52.262;6.172;2023-07-22T01:54:23;10.55;;;5.10;;
24585;SDS011;12743;52.262;6.172;2023-07-22T01:56:49;14.77;;;6.28;;
24585;SDS011;12743;52.262;6.172;2023-07-22T01:59:16;14.50;;;5.80;;
24585;SDS011;12743;52.262;6.172;2023-07-22T02:01:43;11.57;;;5.25;;
24585;SDS011;12743;52.262;6.172;2023-07-22T02:04:10;13.38;;;6.50;;
24585;SDS011;12743;52.262;6.172;2023-07-22T02:06:37;12.82;;;6.15;;
24585;SDS011;12743;52.262;6.172;2023-07-22T02:09:04;14.15;;;5.43;;
24585;SDS011;12743;52.262;6.172;2023-07-22T02:11:40;12.47;;;5.57;;
24585;SDS011;12743;52.262;6.172;2023-07-22T02:14:07;12.95;;;5.22;;
24585;SDS011;12743;52.262;6.172;2023-07-22T02:16:37;14.85;;;6.15;;
24585;SDS011;12743;52.262;6.172;2023-07-22T02:19:04;13.88;;;5.72;;
24585;SDS011;12743;52.262;6.172;2023-07-22T02:21:38;15.45;;;6.45;;
24585;SDS011;12743;52.262;6.172;2023-07-22T02:24:05;14.27;;;5.53;;
24585;SDS011;12743;52.262;6.172;2023-07-22T02:26:32;12.70;;;6.13;;
24585;SDS011;12743;52.262;6.172;2023-07-22T02:28:58;13.65;;;6.43;;
24585;SDS011;12743;52.262;6.172;2023-07-22T02:31:25;13.52;;;6.05;;
24585;SDS011;12743;52.262;6.172;2023-07-22T02:33:52;14.25;;;5.70;;
24585;SDS011;12743;52.262;6.172;2023-07-22T02:36:18;18.43;;;6.70;;
24585;SDS011;12743;52.262;6.172;2023-07-22T02:38:45;13.82;;;6.28;;
24585;SDS011;12743;52.262;6.172;2023-07-22T02:41:12;12.18;;;5.45;;
24585;SDS011;12743;52.262;6.172;2023-07-22T02:43:38;10.60;;;4.80;;
24585;SDS011;12743;52.262;6.172;2023-07-22T02:46:06;13.45;;;5.88;;
24585;SDS011;12743;52.262;6.172;2023-07-22T02:48:34;12.07;;;5.53;;
24585;SDS011;12743;52.262;6.172;2023-07-22T02:51:02;12.98;;;6.00;;
24585;SDS011;12743;52.262;6.172;2023-07-22T02:53:32;12.95;;;5.57;;
24585;SDS011;12743;52.262;6.172;2023-07-22T02:56:00;14.27;;;6.43;;
24585;SDS011;12743;52.262;6.172;2023-07-22T02:58:27;14.85;;;6.68;;
24585;SDS011;12743;52.262;6.172;2023-07-22T03:00:53;17.57;;;7.60;;
24585;SDS011;12743;52.262;6.172;2023-07-22T03:03:20;14.70;;;7.00;;
24585;SDS011;12743;52.262;6.172;2023-07-22T03:05:47;15.48;;;7.07;;
24585;SDS011;12743;52.262;6.172;2023-07-22T03:08:14;16.63;;;7.30;;
24585;SDS011;12743;52.262;6.172;2023-07-22T03:10:41;18.58;;;7.72;;
24585;SDS011;12743;52.262;6.172;2023-07-22T03:13:07;16.07;;;7.47;;
24585;SDS011;12743;52.262;6.172;2023-07-22T03:15:34;17.88;;;7.82;;
24585;SDS011;12743;52.262;6.172;2023-07-22T03:18:00;17.92;;;7.75;;
24585;SDS011;12743;52.262;6.172;2023-07-22T03:20:27;16.70;;;7.63;;
24585;SDS011;12743;52.262;6.172;2023-07-22T03:22:54;16.08;;;7.10;;
24585;SDS011;12743;52.262;6.172;2023-07-22T03:25:21;13.60;;;6.20;;
24585;SDS011;12743;52.262;6.172;2023-07-22T03:27:47;15.00;;;6.70;;
24585;SDS011;12743;52.262;6.172;2023-07-22T03:30:14;13.02;;;6.22;;
24585;SDS011;12743;52.262;6.172;2023-07-22T03:32:46;19.60;;;7.97;;
24585;SDS011;12743;52.262;6.172;2023-07-22T03:35:19;20.13;;;8.23;;
24585;SDS011;12743;52.262;6.172;2023-07-22T03:37:46;18.27;;;8.40;;
24585;SDS011;12743;52.262;6.172;2023-07-22T03:40:12;19.42;;;8.82;;
24585;SDS011;12743;52.262;6.172;2023-07-22T03:42:47;16.77;;;7.55;;
24585;SDS011;12743;52.262;6.172;2023-07-22T03:45:15;17.42;;;7.80;;
24585;SDS011;12743;52.262;6.172;2023-07-22T03:47:43;20.83;;;9.15;;
24585;SDS011;12743;52.262;6.172;2023-07-22T03:50:11;20.67;;;8.07;;
24585;SDS011;12743;52.262;6.172;2023-07-22T03:52:37;19.45;;;8.68;;
24585;SDS011;12743;52.262;6.172;2023-07-22T03:55:04;22.20;;;8.45;;
24585;SDS011;12743;52.262;6.172;2023-07-22T03:57:34;18.23;;;8.23;;
24585;SDS011;12743;52.262;6.172;2023-07-22T04:00:02;21.85;;;8.85;;
24585;SDS011;12743;52.262;6.172;2023-07-22T04:02:37;18.20;;;8.97;;
24585;SDS011;12743;52.262;6.172;2023-07-22T04:05:04;20.75;;;9.63;;
24585;SDS011;12743;52.262;6.172;2023-07-22T04:07:31;21.33;;;9.40;;
24585;SDS011;12743;52.262;6.172;2023-07-22T04:09:58;22.88;;;9.88;;
24585;SDS011;12743;52.262;6.172;2023-07-22T04:12:25;21.23;;;9.15;;
24585;SDS011;12743;52.262;6.172;2023-07-22T04:14:51;16.93;;;7.97;;
24585;SDS011;12743;52.262;6.172;2023-07-22T04:17:19;18.75;;;9.00;;
24585;SDS011;12743;52.262;6.172;2023-07-22T04:19:46;17.85;;;8.27;;
24585;SDS011;12743;52.262;6.172;2023-07-22T04:22:12;19.23;;;9.27;;
24585;SDS011;12743;52.262;6.172;2023-07-22T04:24:39;23.52;;;10.02;;
24585;SDS011;12743;52.262;6.172;2023-07-22T04:27:06;18.30;;;8.73;;
24585;SDS011;12743;52.262;6.172;2023-07-22T04:29:32;22.40;;;10.57;;
24585;SDS011;12743;52.262;6.172;2023-07-22T04:32:00;21.40;;;9.95;;
24585;SDS011;12743;52.262;6.172;2023-07-22T04:34:30;19.98;;;9.30;;
24585;SDS011;12743;52.262;6.172;2023-07-22T04:36:57;19.42;;;9.25;;
24585;SDS011;12743;52.262;6.172;2023-07-22T04:39:24;20.03;;;8.97;;
24585;SDS011;12743;52.262;6.172;2023-07-22T04:41:51;24.50;;;10.63;;
24585;SDS011;12743;52.262;6.172;2023-07-22T04:44:18;20.42;;;9.07;;
24585;SDS011;12743;52.262;6.172;2023-07-22T04:46:45;22.13;;;9.68;;
24585;SDS011;12743;52.262;6.172;2023-07-22T04:49:12;20.50;;;9.57;;
24585;SDS011;12743;52.262;6.172;2023-07-22T04:51:40;21.60;;;9.83;;
24585;SDS011;12743;52.262;6.172;2023-07-22T04:54:07;20.42;;;10.00;;
24585;SDS011;12743;52.262;6.172;2023-07-22T04:56:33;24.05;;;10.63;;
24585;SDS011;12743;52.262;6.172;2023-07-22T04:59:00;23.77;;;10.32;;
24585;SDS011;12743;52.262;6.172;2023-07-22T05:01:27;16.77;;;7.65;;
24585;SDS011;12743;52.262;6.172;2023-07-22T05:03:54;20.07;;;9.70;;
24585;SDS011;12743;52.262;6.172;2023-07-22T05:06:21;18.40;;;8.98;;
24585;SDS011;12743;52.262;6.172;2023-07-22T05:08:48;21.00;;;9.45;;
24585;SDS011;12743;52.262;6.172;2023-07-22T05:11:15;21.30;;;10.20;;
24585;SDS011;12743;52.262;6.172;2023-07-22T05:13:41;20.88;;;9.68;;
24585;SDS011;12743;52.262;6.172;2023-07-22T05:16:08;21.20;;;9.27;;
24585;SDS011;12743;52.262;6.172;2023-07-22T05:18:34;20.38;;;9.65;;
24585;SDS011;12743;52.262;6.172;2023-07-22T05:21:01;22.45;;;10.32;;
24585;SDS011;12743;52.262;6.172;2023-07-22T05:23:28;20.52;;;9.20;;
24585;SDS011;12743;52.262;6.172;2023-07-22T05:25:55;23.40;;;10.30;;
24585;SDS011;12743;52.262;6.172;2023-07-22T05:28:21;21.37;;;10.33;;
24585;SDS011;12743;52.262;6.172;2023-07-22T05:30:50;29.80;;;11.80;;
24585;SDS011;12743;52.262;6.172;2023-07-22T05:33:17;23.98;;;9.82;;
24585;SDS011;12743;52.262;6.172;2023-07-22T05:35:44;22.65;;;10.25;;
24585;SDS011;12743;52.262;6.172;2023-07-22T05:38:14;22.35;;;10.35;;
24585;SDS011;12743;52.262;6.172;2023-07-22T05:40:41;22.30;;;10.70;;
24585;SDS011;12743;52.262;6.172;2023-07-22T05:43:07;21.80;;;10.30;;
24585;SDS011;12743;52.262;6.172;2023-07-22T05:45:34;23.60;;;10.82;;
24585;SDS011;12743;52.262;6.172;2023-07-22T05:48:00;24.45;;;10.35;;
24585;SDS011;12743;52.262;6.172;2023-07-22T05:50:27;18.88;;;8.02;;
24585;SDS011;12743;52.262;6.172;2023-07-22T05:52:54;23.27;;;9.37;;
24585;SDS011;12743;52.262;6.172;2023-07-22T05:55:20;23.42;;;9.43;;
24585;SDS011;12743;52.262;6.172;2023-07-22T05:57:47;21.17;;;10.32;;
24585;SDS011;12743;52.262;6.172;2023-07-22T06:00:13;21.00;;;10.40;;
24585;SDS011;12743;52.262;6.172;2023-07-22T06:02:40;19.88;;;9.77;;
24585;SDS011;12743;52.262;6.172;2023-07-22T06:05:07;25.23;;;11.30;;
24585;SDS011;12743;52.262;6.172;2023-07-22T06:07:34;26.45;;;11.68;;
24585;SDS011;12743;52.262;6.172;2023-07-22T06:10:01;28.83;;;12.13;;
24585;SDS011;12743;52.262;6.172;2023-07-22T06:12:27;26.23;;;11.55;;
24585;SDS011;12743;52.262;6.172;2023-07-22T06:14:55;26.42;;;11.45;;
24585;SDS011;12743;52.262;6.172;2023-07-22T06:17:22;21.27;;;9.37;;
24585;SDS011;12743;52.262;6.172;2023-07-22T06:19:48;24.52;;;10.35;;
24585;SDS011;12743;52.262;6.172;2023-07-22T06:22:15;26.55;;;11.35;;
24585;SDS011;12743;52.262;6.172;2023-07-22T06:24:41;27.83;;;11.95;;
24585;SDS011;12743;52.262;6.172;2023-07-22T06:27:08;27.23;;;12.10;;
24585;SDS011;12743;52.262;6.172;2023-07-22T06:29:35;29.03;;;12.57;;
24585;SDS011;12743;52.262;6.172;2023-07-22T06:32:01;24.25;;;11.85;;
24585;SDS011;12743;52.262;6.172;2023-07-22T06:34:28;24.80;;;10.82;;
24585;SDS011;12743;52.262;6.172;2023-07-22T06:36:55;24.23;;;10.63;;
24585;SDS011;12743;52.262;6.172;2023-07-22T06:39:21;23.38;;;11.38;;
24585;SDS011;12743;52.262;6.172;2023-07-22T06:41:48;26.67;;;12.10;;
24585;SDS011;12743;52.262;6.172;2023-07-22T06:44:15;22.70;;;10.95;;
24585;SDS011;12743;52.262;6.172;2023-07-22T06:46:41;23.15;;;10.82;;
24585;SDS011;12743;52.262;6.172;2023-07-22T06:49:08;23.38;;;10.52;;
24585;SDS011;12743;52.262;6.172;2023-07-22T06:51:35;28.45;;;12.05;;
24585;SDS011;12743;52.262;6.172;2023-07-22T06:54:02;24.63;;;10.67;;
24585;SDS011;12743;52.262;6.172;2023-07-22T06:56:29;26.70;;;10.82;;
24585;SDS011;12743;52.262;6.172;2023-07-22T06:58:56;24.73;;;10.57;;
24585;SDS011;12743;52.262;6.172;2023-07-22T07:01:23;25.02;;;10.95;;
24585;SDS011;12743;52.262;6.172;2023-07-22T07:03:50;21.77;;;10.38;;
24585;SDS011;12743;52.262;6.172;2023-07-22T07:06:17;23.70;;;9.80;;
24585;SDS011;12743;52.262;6.172;2023-07-22T07:08:43;22.20;;;10.20;;
24585;SDS011;12743;52.262;6.172;2023-07-22T07:11:10;22.50;;;10.55;;
24585;SDS011;12743;52.262;6.172;2023-07-22T07:13:37;21.85;;;9.82;;
24585;SDS011;12743;52.262;6.172;2023-07-22T07:16:19;21.13;;;9.07;;
24585;SDS011;12743;52.262;6.172;2023-07-22T07:18:51;20.33;;;9.27;;
24585;SDS011;12743;52.262;6.172;2023-07-22T07:21:18;19.67;;;9.38;;
24585;SDS011;12743;52.262;6.172;2023-07-22T07:23:45;19.92;;;8.43;;
24585;SDS011;12743;52.262;6.172;2023-07-22T07:26:12;19.70;;;8.98;;
24585;SDS011;12743;52.262;6.172;2023-07-22T07:28:38;20.35;;;9.68;;
24585;SDS011;12743;52.262;6.172;2023-07-22T07:31:05;22.20;;;8.00;;
24585;SDS011;12743;52.262;6.172;2023-07-22T07:33:32;25.10;;;10.13;;
24585;SDS011;12743;52.262;6.172;2023-07-22T07:36:00;19.60;;;8.85;;
24585;SDS011;12743;52.262;6.172;2023-07-22T07:38:26;18.20;;;9.52;;
24585;SDS011;12743;52.262;6.172;2023-07-22T07:41:05;16.77;;;7.85;;
24585;SDS011;12743;52.262;6.172;2023-07-22T07:43:35;18.17;;;9.43;;
24585;SDS011;12743;52.262;6.172;2023-07-22T07:46:14;17.95;;;8.25;;
24585;SDS011;12743;52.262;6.172;2023-07-22T07:48:53;15.88;;;7.78;;
24585;SDS011;12743;52.262;6.172;2023-07-22T07:51:21;15.50;;;7.40;;
24585;SDS011;12743;52.262;6.172;2023-07-22T07:53:50;15.95;;;6.95;;
24585;SDS011;12743;52.262;6.172;2023-07-22T07:56:18;14.40;;;7.20;;
24585;SDS011;12743;52.262;6.172;2023-07-22T07:58:45;15.60;;;7.32;;
24585;SDS011;12743;52.262;6.172;2023-07-22T08:01:12;14.38;;;5.68;;
24585;SDS011;12743;52.262;6.172;2023-07-22T08:03:40;16.13;;;6.10;;
24585;SDS011;12743;52.262;6.172;2023-07-22T08:06:11;12.32;;;5.97;;
24585;SDS011;12743;52.262;6.172;2023-07-22T08:08:38;15.13;;;6.03;;
24585;SDS011;12743;52.262;6.172;2023-07-22T08:11:07;14.52;;;6.32;;
24585;SDS011;12743;52.262;6.172;2023-07-22T08:13:35;15.63;;;6.57;;
24585;SDS011;12743;52.262;6.172;2023-07-22T08:16:06;12.15;;;5.40;;
24585;SDS011;12743;52.262;6.172;2023-07-22T08:18:34;12.48;;;5.68;;
24585;SDS011;12743;52.262;6.172;2023-07-22T08:21:02;12.07;;;5.33;;
24585;SDS011;12743;52.262;6.172;2023-07-22T08:23:29;14.68;;;5.32;;
24585;SDS011;12743;52.262;6.172;2023-07-22T08:25:56;10.98;;;5.40;;
24585;SDS011;12743;52.262;6.172;2023-07-22T08:28:23;11.90;;;5.53;;
24585;SDS011;12743;52.262;6.172;2023-07-22T08:30:50;12.57;;;4.40;;
24585;SDS011;12743;52.262;6.172;2023-07-22T08:33:16;10.10;;;5.07;;
24585;SDS011;12743;52.262;6.172;2023-07-22T08:35:56;9.63;;;4.13;;
24585;SDS011;12743;52.262;6.172;2023-07-22T08:38:23;9.20;;;4.20;;
24585;SDS011;12743;52.262;6.172;2023-07-22T08:40:49;9.77;;;4.45;;
24585;SDS011;12743;52.262;6.172;2023-07-22T08:43:20;10.60;;;3.97;;
24585;SDS011;12743;52.262;6.172;2023-07-22T08:45:49;8.07;;;4.27;;
24585;SDS011;12743;52.262;6.172;2023-07-22T08:48:18;8.57;;;3.45;;
24585;SDS011;12743;52.262;6.172;2023-07-22T08:50:49;11.73;;;3.72;;
24585;SDS011;12743;52.262;6.172;2023-07-22T08:53:18;9.95;;;4.10;;
24585;SDS011;12743;52.262;6.172;2023-07-22T08:55:48;10.25;;;4.45;;
24585;SDS011;12743;52.262;6.172;2023-07-22T08:58:14;11.40;;;4.43;;
24585;SDS011;12743;52.262;6.172;2023-07-22T09:00:42;10.07;;;3.97;;
24585;SDS011;12743;52.262;6.172;2023-07-22T09:03:09;8.88;;;4.32;;
24585;SDS011;12743;52.262;6.172;2023-07-22T09:05:37;13.00;;;4.20;;
24585;SDS011;12743;52.262;6.172;2023-07-22T09:08:06;8.32;;;3.60;;
24585;SDS011;12743;52.262;6.172;2023-07-22T09:10:34;11.23;;;3.63;;
24585;SDS011;12743;52.262;6.172;2023-07-22T09:13:02;17.75;;;4.10;;
24585;SDS011;12743;52.262;6.172;2023-07-22T09:15:29;12.65;;;5.03;;
24585;SDS011;12743;52.262;6.172;2023-07-22T09:18:00;12.55;;;4.93;;
24585;SDS011;12743;52.262;6.172;2023-07-22T09:20:27;11.00;;;3.65;;
24585;SDS011;12743;52.262;6.172;2023-07-22T09:22:55;11.83;;;4.63;;
24585;SDS011;12743;52.262;6.172;2023-07-22T09:25:38;10.70;;;4.47;;
24585;SDS011;12743;52.262;6.172;2023-07-22T09:28:06;11.57;;;4.50;;
24585;SDS011;12743;52.262;6.172;2023-07-22T09:30:33;11.23;;;4.28;;
24585;SDS011;12743;52.262;6.172;2023-07-22T09:33:02;9.18;;;4.70;;
24585;SDS011;12743;52.262;6.172;2023-07-22T09:35:30;12.53;;;4.93;;
24585;SDS011;12743;52.262;6.172;2023-07-22T09:38:24;9.07;;;4.50;;
24585;SDS011;12743;52.262;6.172;2023-07-22T09:40:51;12.60;;;4.25;;
24585;SDS011;12743;52.262;6.172;2023-07-22T09:43:19;9.93;;;4.28;;
24585;SDS011;12743;52.262;6.172;2023-07-22T09:45:48;9.75;;;4.13;;
24585;SDS011;12743;52.262;6.172;2023-07-22T09:48:15;20.63;;;4.50;;
24585;SDS011;12743;52.262;6.172;2023-07-22T09:50:43;11.13;;;4.32;;
24585;SDS011;12743;52.262;6.172;2023-07-22T09:53:10;10.32;;;4.00;;
24585;SDS011;12743;52.262;6.172;2023-07-22T09:55:43;11.85;;;4.05;;
24585;SDS011;12743;52.262;6.172;2023-07-22T09:58:10;30.90;;;5.07;;
24585;SDS011;12743;52.262;6.172;2023-07-22T10:00:40;9.60;;;3.87;;
24585;SDS011;12743;52.262;6.172;2023-07-22T10:03:12;10.35;;;3.70;;
24585;SDS011;12743;52.262;6.172;2023-07-22T10:05:42;10.93;;;4.45;;
24585;SDS011;12743;52.262;6.172;2023-07-22T10:08:12;9.48;;;3.30;;
24585;SDS011;12743;52.262;6.172;2023-07-22T10:10:43;44.75;;;5.75;;
24585;SDS011;12743;52.262;6.172;2023-07-22T10:13:11;30.37;;;4.17;;
24585;SDS011;12743;52.262;6.172;2023-07-22T10:15:38;21.70;;;4.00;;
24585;SDS011;12743;52.262;6.172;2023-07-22T10:18:05;10.63;;;3.20;;
24585;SDS011;12743;52.262;6.172;2023-07-22T10:20:31;10.43;;;4.63;;
24585;SDS011;12743;52.262;6.172;2023-07-22T10:23:03;11.00;;;4.47;;
24585;SDS011;12743;52.262;6.172;2023-07-22T10:25:30;10.23;;;4.40;;
24585;SDS011;12743;52.262;6.172;2023-07-22T10:27:57;10.15;;;4.00;;
24585;SDS011;12743;52.262;6.172;2023-07-22T10:30:23;9.57;;;4.32;;
24585;SDS011;12743;52.262;6.172;2023-07-22T10:32:53;11.55;;;4.25;;
24585;SDS011;12743;52.262;6.172;2023-07-22T10:38:06;9.07;;;4.40;;
24585;SDS011;12743;52.262;6.172;2023-07-22T10:40:44;10.25;;;3.67;;
24585;SDS011;12743;52.262;6.172;2023-07-22T10:43:12;11.30;;;4.57;;
24585;SDS011;12743;52.262;6.172;2023-07-22T10:45:42;8.32;;;4.13;;
24585;SDS011;12743;52.262;6.172;2023-07-22T10:48:14;8.43;;;3.60;;
24585;SDS011;12743;52.262;6.172;2023-07-22T10:50:48;11.60;;;4.80;;
24585;SDS011;12743;52.262;6.172;2023-07-22T11:12:00;8.55;;;3.40;;
24585;SDS011;12743;52.262;6.172;2023-07-22T11:14:30;7.75;;;3.42;;
24585;SDS011;12743;52.262;6.172;2023-07-22T11:17:01;6.87;;;3.20;;
24585;SDS011;12743;52.262;6.172;2023-07-22T11:19:32;9.13;;;4.03;;
24585;SDS011;12743;52.262;6.172;2023-07-22T11:22:01;7.25;;;3.10;;
24585;SDS011;12743;52.262;6.172;2023-07-22T11:24:29;7.47;;;3.10;;
24585;SDS011;12743;52.262;6.172;2023-07-22T11:26:55;7.97;;;2.83;;
24585;SDS011;12743;52.262;6.172;2023-07-22T11:29:22;7.40;;;3.27;;
24585;SDS011;12743;52.262;6.172;2023-07-22T11:31:49;8.90;;;3.03;;
24585;SDS011;12743;52.262;6.172;2023-07-22T11:34:22;12.30;;;3.22;;
24585;SDS011;12743;52.262;6.172;2023-07-22T11:36:50;10.90;;;3.67;;
24585;SDS011;12743;52.262;6.172;2023-07-22T11:39:18;8.18;;;3.05;;
24585;SDS011;12743;52.262;6.172;2023-07-22T11:41:48;6.27;;;2.90;;
24585;SDS011;12743;52.262;6.172;2023-07-22T11:44:16;9.55;;;3.20;;
24585;SDS011;12743;52.262;6.172;2023-07-22T11:46:58;7.03;;;3.17;;
24585;SDS011;12743;52.262;6.172;2023-07-22T11:51:57;9.15;;;3.40;;
24585;SDS011;12743;52.262;6.172;2023-07-22T11:54:29;8.13;;;3.37;;
24585;SDS011;12743;52.262;6.172;2023-07-22T11:56:57;8.65;;;3.45;;
24585;SDS011;12743;52.262;6.172;2023-07-22T11:59:34;8.65;;;3.50;;
24585;SDS011;12743;52.262;6.172;2023-07-22T12:02:01;8.98;;;3.22;;
24585;SDS011;12743;52.262;6.172;2023-07-22T12:04:32;7.18;;;3.15;;
24585;SDS011;12743;52.262;6.172;2023-07-22T12:07:00;8.63;;;3.43;;
24585;SDS011;12743;52.262;6.172;2023-07-22T12:09:28;8.82;;;3.58;;
24585;SDS011;12743;52.262;6.172;2023-07-22T12:11:58;7.72;;;3.20;;
24585;SDS011;12743;52.262;6.172;2023-07-22T12:14:32;9.52;;;3.70;;
24585;SDS011;12743;52.262;6.172;2023-07-22T12:17:01;8.07;;;3.80;;
24585;SDS011;12743;52.262;6.172;2023-07-22T12:19:28;9.80;;;3.40;;
24585;SDS011;12743;52.262;6.172;2023-07-22T12:21:56;6.55;;;3.28;;
24585;SDS011;12743;52.262;6.172;2023-07-22T12:24:23;8.52;;;3.90;;
24585;SDS011;12743;52.262;6.172;2023-07-22T12:26:50;9.43;;;3.05;;
24585;SDS011;12743;52.262;6.172;2023-07-22T12:29:16;7.65;;;3.25;;
24585;SDS011;12743;52.262;6.172;2023-07-22T12:31:43;8.17;;;3.20;;
24585;SDS011;12743;52.262;6.172;2023-07-22T12:34:10;7.95;;;3.58;;
24585;SDS011;12743;52.262;6.172;2023-07-22T12:36:36;7.50;;;2.83;;
24585;SDS011;12743;52.262;6.172;2023-07-22T12:39:03;10.55;;;3.17;;
24585;SDS011;12743;52.262;6.172;2023-07-22T12:41:31;7.60;;;2.90;;
24585;SDS011;12743;52.262;6.172;2023-07-22T12:43:57;8.37;;;3.03;;
24585;SDS011;12743;52.262;6.172;2023-07-22T12:46:24;8.48;;;2.88;;
24585;SDS011;12743;52.262;6.172;2023-07-22T12:48:51;7.63;;;2.83;;
24585;SDS011;12743;52.262;6.172;2023-07-22T12:51:17;9.02;;;2.95;;
24585;SDS011;12743;52.262;6.172;2023-07-22T12:53:44;6.97;;;3.08;;
24585;SDS011;12743;52.262;6.172;2023-07-22T12:56:10;8.00;;;4.00;;
24585;SDS011;12743;52.262;6.172;2023-07-22T12:58:37;12.38;;;4.95;;
24585;SDS011;12743;52.262;6.172;2023-07-22T13:01:04;29.85;;;5.00;;
24585;SDS011;12743;52.262;6.172;2023-07-22T13:03:30;11.13;;;4.00;;
24585;SDS011;12743;52.262;6.172;2023-07-22T13:05:57;113.78;;;10.30;;
24585;SDS011;12743;52.262;6.172;2023-07-22T13:08:23;73.87;;;9.30;;
24585;SDS011;12743;52.262;6.172;2023-07-22T13:10:50;92.70;;;10.57;;
24585;SDS011;12743;52.262;6.172;2023-07-22T13:13:17;21.48;;;6.10;;
24585;SDS011;12743;52.262;6.172;2023-07-22T13:15:43;92.13;;;9.55;;
24585;SDS011;12743;52.262;6.172;2023-07-22T13:18:10;132.35;;;13.15;;
24585;SDS011;12743;52.262;6.172;2023-07-22T13:20:39;121.53;;;12.73;;
24585;SDS011;12743;52.262;6.172;2023-07-22T13:23:06;49.15;;;7.43;;
24585;SDS011;12743;52.262;6.172;2023-07-22T13:25:33;66.90;;;8.98;;
24585;SDS011;12743;52.262;6.172;2023-07-22T13:28:00;99.43;;;10.48;;
24585;SDS011;12743;52.262;6.172;2023-07-22T13:30:26;95.70;;;10.90;;
24585;SDS011;12743;52.262;6.172;2023-07-22T13:32:53;67.20;;;9.90;;
24585;SDS011;12743;52.262;6.172;2023-07-22T13:35:19;69.65;;;9.52;;
24585;SDS011;12743;52.262;6.172;2023-07-22T13:37:46;56.33;;;8.88;;
24585;SDS011;12743;52.262;6.172;2023-07-22T13:40:12;41.38;;;8.07;;
24585;SDS011;12743;52.262;6.172;2023-07-22T13:42:39;34.22;;;7.30;;
24585;SDS011;12743;52.262;6.172;2023-07-22T13:45:06;18.07;;;6.50;;
24585;SDS011;12743;52.262;6.172;2023-07-22T13:47:33;30.88;;;6.75;;
24585;SDS011;12743;52.262;6.172;2023-07-22T13:50:00;29.77;;;6.15;;
24585;SDS011;12743;52.262;6.172;2023-07-22T13:52:26;16.85;;;5.95;;
24585;SDS011;12743;52.262;6.172;2023-07-22T13:54:53;26.73;;;5.57;;
24585;SDS011;12743;52.262;6.172;2023-07-22T13:57:20;20.70;;;5.97;;
24585;SDS011;12743;52.262;6.172;2023-07-22T13:59:46;38.00;;;6.07;;
24585;SDS011;12743;52.262;6.172;2023-07-22T14:02:13;37.28;;;5.93;;
24585;SDS011;12743;52.262;6.172;2023-07-22T14:04:40;10.63;;;4.75;;
24585;SDS011;12743;52.262;6.172;2023-07-22T14:07:06;13.95;;;4.63;;
24585;SDS011;12743;52.262;6.172;2023-07-22T14:09:33;28.30;;;5.00;;
24585;SDS011;12743;52.262;6.172;2023-07-22T14:11:59;18.80;;;4.70;;
24585;SDS011;12743;52.262;6.172;2023-07-22T14:14:26;15.75;;;4.30;;
24585;SDS011;12743;52.262;6.172;2023-07-22T14:16:55;11.82;;;4.57;;
24585;SDS011;12743;52.262;6.172;2023-07-22T14:19:23;19.73;;;5.32;;
24585;SDS011;12743;52.262;6.172;2023-07-22T14:21:50;10.07;;;4.50;;
24585;SDS011;12743;52.262;6.172;2023-07-22T14:24:17;12.15;;;4.60;;
24585;SDS011;12743;52.262;6.172;2023-07-22T14:26:44;17.17;;;4.25;;
24585;SDS011;12743;52.262;6.172;2023-07-22T14:29:10;11.90;;;4.45;;
24585;SDS011;12743;52.262;6.172;2023-07-22T14:31:37;12.98;;;5.38;;
24585;SDS011;12743;52.262;6.172;2023-07-22T14:34:03;12.17;;;4.40;;
24585;SDS011;12743;52.262;6.172;2023-07-22T14:36:30;15.90;;;4.63;;
24585;SDS011;12743;52.262;6.172;2023-07-22T14:38:57;13.75;;;4.93;;
24585;SDS011;12743;52.262;6.172;2023-07-22T14:41:24;13.35;;;5.07;;
24585;SDS011;12743;52.262;6.172;2023-07-22T14:43:51;10.43;;;5.05;;
24585;SDS011;12743;52.262;6.172;2023-07-22T14:46:18;11.57;;;5.27;;
24585;SDS011;12743;52.262;6.172;2023-07-22T14:48:45;14.00;;;4.85;;
24585;SDS011;12743;52.262;6.172;2023-07-22T14:51:11;12.95;;;5.82;;
24585;SDS011;12743;52.262;6.172;2023-07-22T14:53:38;10.98;;;6.00;;
24585;SDS011;12743;52.262;6.172;2023-07-22T14:56:05;15.50;;;4.45;;
24585;SDS011;12743;52.262;6.172;2023-07-22T14:58:33;10.63;;;5.70;;
24585;SDS011;12743;52.262;6.172;2023-07-22T15:01:00;11.02;;;5.53;;
24585;SDS011;12743;52.262;6.172;2023-07-22T15:03:29;24.25;;;6.28;;